Stena Suede — ZCEF5 — position and weather

sailwx.info

Track history (hours):
 
Tides and Currents Weather Stations Pressure Air Temp Water Temp Dewpoint Dewpoint Depression Visibility Wind Speed Wind Dir Waves Ship Positions

Stena Suede

Last reported at 2017-Jan-19 12:15 UTC. Time now 2017-Feb-25 00:51 UTC.
Position N 58°45' E 004°39'.
Warning: this ship's position is 36 days out of date.

Length 274 m; draft 8.8 m.

Type: Tanker. MMSI: 310622000.

Date/timePositionNaut miles runAvg speedWind from/ knotsBaromVisibWave heightAir tempDewpointWater temp
2017-Jan-19 12:15N 58°45' E 004°39'1014.2
2017-Jan-19 11:34N 58°38' E 004°52'1414.2
2017-Jan-19 10:33N 58°28' E 005°11'1414.4
2017-Jan-19 09:33N 58°18' E 005°31'1414.4
2017-Jan-19 08:33N 58°08' E 005°51'1514.3
2017-Jan-19 07:32N 57°59' E 006°12'1414.6
2017-Jan-19 06:32N 57°49' E 006°33'1514.6
2017-Jan-19 05:32N 57°46' E 006°59'11314.2
2017-Jan-18 21:33N 57°49' E 010°31'9 9.5
2017-Jan-18 20:33N 57°46' E 010°48'5 4.7
2017-Jan-18 19:32N 57°43' E 010°42'0 0.0
2017-Jan-18 18:32N 57°43' E 010°42'0 0.0
2017-Jan-18 17:32N 57°43' E 010°42'0 0.0
2017-Jan-18 16:26N 57°43' E 010°42'0 0.0
2017-Jan-18 15:32N 57°43' E 010°42'0 0.0
2017-Jan-18 14:32N 57°43' E 010°42'0 0.0
2017-Jan-18 13:32N 57°43' E 010°42'0 0.0
2017-Jan-18 12:32N 57°43' E 010°42'2 2.5
2017-Jan-18 11:34N 57°45' E 010°45'7 7.0
2017-Jan-18 10:33N 57°47' E 010°32'3912.5
2017-Jan-18 07:24N 57°36' E 009°21'1112.5
2017-Jan-18 06:32N 57°33' E 009°02'1212.4
2017-Jan-18 05:33N 57°26' E 008°43'35613.2
2017-Jan-17 02:33N 52°29' E 002°59'5410.8
2017-Jan-16 21:31N 51°39' E 002°25'1111.7
2017-Jan-16 20:34N 51°31' E 002°13'1211.6
2017-Jan-16 19:33N 51°20' E 002°07'1111.4
2017-Jan-16 18:33N 51°11' E 001°55'1313.3
2017-Jan-16 17:34N 51°03' E 001°38'1414.1
2017-Jan-16 16:32N 50°51' E 001°25'5213.1
2017-Jan-16 12:32N 50°20' E 000°18'1514.6
2017-Jan-16 11:32N 50°14' W 000°02'1313.7
2017-Jan-16 10:33N 50°01' W 000°06'1312.7
2017-Jan-16 09:33N 49°48' W 000°10'1211.8
2017-Jan-16 08:33N 49°36' W 000°07'1110.9
2017-Jan-16 07:33N 49°29' E 000°05'3 2.7
2017-Jan-16 06:33N 49°28' E 000°09'0 0.0
2017-Jan-16 05:32N 49°28' E 000°09'0 0.0
2017-Jan-16 04:32N 49°28' E 000°09'0 0.0
2017-Jan-16 03:32N 49°28' E 000°09'0 0.0
2017-Jan-16 02:32N 49°28' E 000°09'0 0.0
2017-Jan-16 01:32N 49°28' E 000°09'0 0.0
2017-Jan-16 00:32N 49°28' E 000°09'0 0.0
2017-Jan-15 23:32N 49°28' E 000°09'0 0.0
2017-Jan-15 22:32N 49°28' E 000°09'0 0.0
2017-Jan-15 21:32N 49°28' E 000°09'0 0.0
2017-Jan-15 20:32N 49°28' E 000°09'0 0.0
2017-Jan-15 19:32N 49°28' E 000°09'0 0.0
2017-Jan-15 18:32N 49°28' E 000°09'0 0.0
2017-Jan-15 17:32N 49°28' E 000°09'0 0.0
2017-Jan-15 16:32N 49°28' E 000°09'0 0.0
2017-Jan-15 15:32N 49°28' E 000°09'0 0.0
2017-Jan-15 14:32N 49°28' E 000°09'0 0.0
2017-Jan-15 13:32N 49°28' E 000°09'0 0.0
2017-Jan-15 12:32N 49°28' E 000°09'0 0.0
2017-Jan-15 11:32N 49°28' E 000°09'0 0.0
2017-Jan-15 10:32N 49°28' E 000°09'0 0.0
2017-Jan-15 09:32N 49°28' E 000°09'0 0.0
2017-Jan-15 08:32N 49°28' E 000°09'0 0.0
2017-Jan-15 07:32N 49°28' E 000°09'0 0.0
2017-Jan-15 06:32N 49°28' E 000°09'0 0.0
2017-Jan-15 05:32N 49°28' E 000°09'0 0.0
2017-Jan-15 04:32N 49°28' E 000°09'0 0.0
2017-Jan-15 03:32N 49°28' E 000°09'0 0.0
2017-Jan-15 02:32N 49°28' E 000°09'0 0.0
2017-Jan-15 01:32N 49°28' E 000°09'0 0.0
2017-Jan-15 00:32N 49°28' E 000°09'0 0.0
2017-Jan-14 23:32N 49°28' E 000°09'0 0.0
2017-Jan-14 22:32N 49°28' E 000°09'2 1.7
2017-Jan-14 21:34N 49°29' E 000°07'9 9.0
2017-Jan-14 20:34N 49°31' W 000°06'6 6.4
2017-Jan-14 19:34N 49°35' W 000°15'0 0.1
2017-Jan-14 18:33N 49°35' W 000°15'0 0.1
2017-Jan-14 17:33N 49°35' W 000°15'0 0.0
2017-Jan-14 16:33N 49°35' W 000°15'0 0.0
2017-Jan-14 15:33N 49°35' W 000°15'0 0.0
2017-Jan-14 14:33N 49°35' W 000°15'0 0.2
2017-Jan-14 13:33N 49°35' W 000°15'0 0.1
2017-Jan-14 12:33N 49°35' W 000°15'0 0.1
2017-Jan-14 11:33N 49°35' W 000°14'0 0.1
2017-Jan-14 10:33N 49°35' W 000°15'0 0.0
2017-Jan-14 09:33N 49°35' W 000°14'0 0.1
2017-Jan-14 08:33N 49°35' W 000°14'0 0.1
2017-Jan-14 07:33N 49°35' W 000°15'0 0.2
2017-Jan-14 06:33N 49°35' W 000°15'0 0.1
2017-Jan-14 05:33N 49°35' W 000°15'0 0.0
2017-Jan-14 04:33N 49°35' W 000°15'0 0.0
2017-Jan-14 03:33N 49°35' W 000°15'0 0.1
2017-Jan-13 23:33N 49°35' W 000°14'0 0.1
2017-Jan-13 22:33N 49°35' W 000°14'0 0.0
2017-Jan-13 21:33N 49°35' W 000°14'0 0.1
2017-Jan-13 20:33N 49°35' W 000°14'0 0.1
2017-Jan-13 19:33N 49°35' W 000°14'0 0.1
2017-Jan-13 18:33N 49°35' W 000°15'0 0.0
2017-Jan-13 17:33N 49°35' W 000°15'0 0.1
2017-Jan-13 16:33N 49°35' W 000°15'0 0.0
2017-Jan-13 15:33N 49°35' W 000°15'0 0.0
2017-Jan-13 14:33N 49°35' W 000°15'0 0.0
2017-Jan-13 13:33N 49°35' W 000°15'0 0.1
2017-Jan-13 12:33N 49°35' W 000°15'0 0.0
2017-Jan-13 11:33N 49°35' W 000°14'0 0.1
2017-Jan-13 10:33N 49°35' W 000°14'0 0.1
2017-Jan-13 09:33N 49°35' W 000°14'0 0.0
2017-Jan-13 08:33N 49°35' W 000°14'0 0.1
2017-Jan-13 07:33N 49°35' W 000°14'0 0.1
2017-Jan-13 06:33N 49°35' W 000°15'0 0.1
2017-Jan-13 05:33N 49°35' W 000°15'0 0.1
2017-Jan-13 04:33N 49°35' W 000°15'0 0.0
2017-Jan-13 03:33N 49°35' W 000°15'0 0.1
2017-Jan-13 02:33N 49°35' W 000°15'0 0.1
2017-Jan-13 01:33N 49°35' W 000°15'0 0.1
2017-Jan-13 00:33N 49°35' W 000°15'0 0.0
2017-Jan-12 23:33N 49°35' W 000°15'0 0.1
2017-Jan-12 22:33N 49°35' W 000°14'0 0.1
2017-Jan-12 21:33N 49°35' W 000°14'0 0.0
2017-Jan-12 20:33N 49°35' W 000°14'0 0.0
2017-Jan-12 19:33N 49°35' W 000°14'0 0.0
2017-Jan-12 18:33N 49°35' W 000°15'0 0.3
2017-Jan-12 17:33N 49°35' W 000°15'0 0.2
2017-Jan-12 16:33N 49°35' W 000°15'0 0.0
2017-Jan-12 15:33N 49°35' W 000°15'0 0.0
2017-Jan-12 14:30N 49°35' W 000°15'0 0.1
2017-Jan-12 13:33N 49°35' W 000°15'0 0.1
2017-Jan-12 12:33N 49°35' W 000°15'0 0.2
2017-Jan-12 11:33N 49°35' W 000°15'0 0.1
2017-Jan-12 10:33N 49°35' W 000°15'0 0.0
2017-Jan-12 09:33N 49°35' W 000°15'0 0.0
2017-Jan-12 08:33N 49°35' W 000°15'0 0.1
2017-Jan-12 07:33N 49°35' W 000°15'0 0.1
2017-Jan-12 06:33N 49°35' W 000°15'0 0.1
2017-Jan-12 05:33N 49°35' W 000°15'0 0.2
2017-Jan-12 04:33N 49°35' W 000°15'0 0.1
2017-Jan-12 03:33N 49°35' W 000°15'0 0.0
2017-Jan-12 02:33N 49°35' W 000°15'0 0.0
2017-Jan-12 01:33N 49°35' W 000°15'0 0.0
2017-Jan-12 00:33N 49°35' W 000°15'0 0.3
2017-Jan-11 23:33N 49°35' W 000°15'0 0.1
2017-Jan-11 22:33N 49°35' W 000°15'0 0.1
2017-Jan-11 21:33N 49°35' W 000°15'0 0.1
2017-Jan-11 20:30N 49°35' W 000°15'0 0.0
2017-Jan-11 19:33N 49°35' W 000°15'0 0.1
2017-Jan-11 18:33N 49°35' W 000°15'0 0.1
2017-Jan-11 17:33N 49°35' W 000°15'0 0.1
2017-Jan-11 16:33N 49°35' W 000°15'0 0.1
2017-Jan-11 15:33N 49°35' W 000°15'0 0.1
2017-Jan-11 14:33N 49°35' W 000°15'0 0.0
2017-Jan-11 13:33N 49°35' W 000°15'0 0.0
2017-Jan-11 12:33N 49°35' W 000°15'0 0.3
2017-Jan-11 11:33N 49°35' W 000°15'0 0.2
2017-Jan-11 10:33N 49°35' W 000°15'0 0.0
2017-Jan-11 09:30N 49°35' W 000°15'0 0.0
2017-Jan-11 08:33N 49°35' W 000°15'0 0.0
2017-Jan-11 07:33N 49°35' W 000°15'0 0.1
2017-Jan-11 06:33N 49°35' W 000°15'0 0.1
2017-Jan-11 05:33N 49°35' W 000°15'0 0.1
2017-Jan-11 04:33N 49°35' W 000°15'0 0.2
2017-Jan-11 03:33N 49°35' W 000°15'0 0.1
2017-Jan-11 02:33N 49°35' W 000°15'0 0.0
2017-Jan-11 01:33N 49°35' W 000°15'0 0.0
2017-Jan-11 00:33N 49°35' W 000°15'0 0.0
2017-Jan-10 23:33N 49°35' W 000°15'0 0.3
2017-Jan-10 22:33N 49°35' W 000°15'0 0.1
2017-Jan-10 21:33N 49°35' W 000°15'0 0.0
2017-Jan-10 20:33N 49°35' W 000°15'0 0.0
2017-Jan-10 19:33N 49°35' W 000°15'0 0.0
2017-Jan-10 18:33N 49°35' W 000°15'0 0.1
2017-Jan-10 17:33N 49°35' W 000°15'0 0.1
2017-Jan-10 16:33N 49°35' W 000°15'0 0.1
2017-Jan-10 15:33N 49°35' W 000°15'0 0.1
2017-Jan-10 14:33N 49°35' W 000°15'0 0.0
2017-Jan-10 13:33N 49°35' W 000°15'0 0.0
2017-Jan-10 12:33N 49°35' W 000°15'0 0.0
2017-Jan-10 11:33N 49°35' W 000°15'0 0.2
2017-Jan-10 10:33N 49°35' W 000°15'0 0.1
2017-Jan-10 09:33N 49°35' W 000°15'0 0.1
2017-Jan-10 08:33N 49°35' W 000°15'0 0.1
2017-Jan-10 07:33N 49°35' W 000°15'0 0.0
2017-Jan-10 06:33N 49°35' W 000°15'0 0.0
2017-Jan-10 05:33N 49°35' W 000°15'0 0.1
2017-Jan-10 04:33N 49°35' W 000°15'0 0.1
2017-Jan-10 03:33N 49°35' W 000°15'0 0.1
2017-Jan-10 02:33N 49°35' W 000°15'0 0.1
2017-Jan-10 01:33N 49°35' W 000°15'0 0.0
2017-Jan-10 00:33N 49°35' W 000°15'0 0.1
2017-Jan-09 23:33N 49°35' W 000°15'0 0.2
2017-Jan-09 22:33N 49°35' W 000°15'0 0.2
2017-Jan-09 21:33N 49°35' W 000°15'0 0.1
2017-Jan-09 20:33N 49°35' W 000°15'0 0.1
2017-Jan-09 19:33N 49°35' W 000°15'0 0.0
2017-Jan-09 18:33N 49°35' W 000°15'0 0.0
2017-Jan-09 17:33N 49°35' W 000°15'0 0.1
2017-Jan-09 16:33N 49°35' W 000°15'0 0.1
2017-Jan-09 15:30N 49°35' W 000°15'0 0.2
2017-Jan-09 14:32N 49°35' W 000°15'0 0.0
2017-Jan-09 13:32N 49°35' W 000°15'0 0.0
2017-Jan-09 12:30N 49°35' W 000°15'  
Track history (hours):
 
Tides and Currents Weather Stations Pressure Air Temp Water Temp Dewpoint Dewpoint Depression Visibility Wind Speed Wind Dir Waves Ship Positions

Stena Suede

Last reported at 2017-Jan-19 12:15 UTC. Time now 2017-Feb-25 00:51 UTC.
Position N 58°45' E 004°39'.
Warning: this ship's position is 36 days out of date.

Length 274 m; draft 8.8 m.

Type: Tanker. MMSI: 310622000.

Date/timePositionNaut miles runAvg speedWind from/ knotsBaromVisibWave heightAir tempDewpointWater temp
2017-Jan-19 12:15N 58°45' E 004°39'1014.2
2017-Jan-19 11:34N 58°38' E 004°52'1414.2
2017-Jan-19 10:33N 58°28' E 005°11'1414.4
2017-Jan-19 09:33N 58°18' E 005°31'1414.4
2017-Jan-19 08:33N 58°08' E 005°51'1514.3
2017-Jan-19 07:32N 57°59' E 006°12'1414.6
2017-Jan-19 06:32N 57°49' E 006°33'1514.6
2017-Jan-19 05:32N 57°46' E 006°59'11314.2
2017-Jan-18 21:33N 57°49' E 010°31'9 9.5
2017-Jan-18 20:33N 57°46' E 010°48'5 4.7
2017-Jan-18 19:32N 57°43' E 010°42'0 0.0
2017-Jan-18 18:32N 57°43' E 010°42'0 0.0
2017-Jan-18 17:32N 57°43' E 010°42'0 0.0
2017-Jan-18 16:26N 57°43' E 010°42'0 0.0
2017-Jan-18 15:32N 57°43' E 010°42'0 0.0
2017-Jan-18 14:32N 57°43' E 010°42'0 0.0
2017-Jan-18 13:32N 57°43' E 010°42'0 0.0
2017-Jan-18 12:32N 57°43' E 010°42'2 2.5
2017-Jan-18 11:34N 57°45' E 010°45'7 7.0
2017-Jan-18 10:33N 57°47' E 010°32'3912.5
2017-Jan-18 07:24N 57°36' E 009°21'1112.5
2017-Jan-18 06:32N 57°33' E 009°02'1212.4
2017-Jan-18 05:33N 57°26' E 008°43'35613.2
2017-Jan-17 02:33N 52°29' E 002°59'5410.8
2017-Jan-16 21:31N 51°39' E 002°25'1111.7
2017-Jan-16 20:34N 51°31' E 002°13'1211.6
2017-Jan-16 19:33N 51°20' E 002°07'1111.4
2017-Jan-16 18:33N 51°11' E 001°55'1313.3
2017-Jan-16 17:34N 51°03' E 001°38'1414.1
2017-Jan-16 16:32N 50°51' E 001°25'5213.1
2017-Jan-16 12:32N 50°20' E 000°18'1514.6
2017-Jan-16 11:32N 50°14' W 000°02'1313.7
2017-Jan-16 10:33N 50°01' W 000°06'1312.7
2017-Jan-16 09:33N 49°48' W 000°10'1211.8
2017-Jan-16 08:33N 49°36' W 000°07'1110.9
2017-Jan-16 07:33N 49°29' E 000°05'3 2.7
2017-Jan-16 06:33N 49°28' E 000°09'0 0.0
2017-Jan-16 05:32N 49°28' E 000°09'0 0.0
2017-Jan-16 04:32N 49°28' E 000°09'0 0.0
2017-Jan-16 03:32N 49°28' E 000°09'0 0.0
2017-Jan-16 02:32N 49°28' E 000°09'0 0.0
2017-Jan-16 01:32N 49°28' E 000°09'0 0.0
2017-Jan-16 00:32N 49°28' E 000°09'0 0.0
2017-Jan-15 23:32N 49°28' E 000°09'0 0.0
2017-Jan-15 22:32N 49°28' E 000°09'0 0.0
2017-Jan-15 21:32N 49°28' E 000°09'0 0.0
2017-Jan-15 20:32N 49°28' E 000°09'0 0.0
2017-Jan-15 19:32N 49°28' E 000°09'0 0.0
2017-Jan-15 18:32N 49°28' E 000°09'0 0.0
2017-Jan-15 17:32N 49°28' E 000°09'0 0.0
2017-Jan-15 16:32N 49°28' E 000°09'0 0.0
2017-Jan-15 15:32N 49°28' E 000°09'0 0.0
2017-Jan-15 14:32N 49°28' E 000°09'0 0.0
2017-Jan-15 13:32N 49°28' E 000°09'0 0.0
2017-Jan-15 12:32N 49°28' E 000°09'0 0.0
2017-Jan-15 11:32N 49°28' E 000°09'0 0.0
2017-Jan-15 10:32N 49°28' E 000°09'0 0.0
2017-Jan-15 09:32N 49°28' E 000°09'0 0.0
2017-Jan-15 08:32N 49°28' E 000°09'0 0.0
2017-Jan-15 07:32N 49°28' E 000°09'0 0.0
2017-Jan-15 06:32N 49°28' E 000°09'0 0.0
2017-Jan-15 05:32N 49°28' E 000°09'0 0.0
2017-Jan-15 04:32N 49°28' E 000°09'0 0.0
2017-Jan-15 03:32N 49°28' E 000°09'0 0.0
2017-Jan-15 02:32N 49°28' E 000°09'0 0.0
2017-Jan-15 01:32N 49°28' E 000°09'0 0.0
2017-Jan-15 00:32N 49°28' E 000°09'0 0.0
2017-Jan-14 23:32N 49°28' E 000°09'0 0.0
2017-Jan-14 22:32N 49°28' E 000°09'2 1.7
2017-Jan-14 21:34N 49°29' E 000°07'9 9.0
2017-Jan-14 20:34N 49°31' W 000°06'6 6.4
2017-Jan-14 19:34N 49°35' W 000°15'0 0.1
2017-Jan-14 18:33N 49°35' W 000°15'0 0.1
2017-Jan-14 17:33N 49°35' W 000°15'0 0.0
2017-Jan-14 16:33N 49°35' W 000°15'0 0.0
2017-Jan-14 15:33N 49°35' W 000°15'0 0.0
2017-Jan-14 14:33N 49°35' W 000°15'0 0.2
2017-Jan-14 13:33N 49°35' W 000°15'0 0.1
2017-Jan-14 12:33N 49°35' W 000°15'0 0.1
2017-Jan-14 11:33N 49°35' W 000°14'0 0.1
2017-Jan-14 10:33N 49°35' W 000°15'0 0.0
2017-Jan-14 09:33N 49°35' W 000°14'0 0.1
2017-Jan-14 08:33N 49°35' W 000°14'0 0.1
2017-Jan-14 07:33N 49°35' W 000°15'0 0.2
2017-Jan-14 06:33N 49°35' W 000°15'0 0.1
2017-Jan-14 05:33N 49°35' W 000°15'0 0.0
2017-Jan-14 04:33N 49°35' W 000°15'0 0.0
2017-Jan-14 03:33N 49°35' W 000°15'0 0.1
2017-Jan-13 23:33N 49°35' W 000°14'0 0.1
2017-Jan-13 22:33N 49°35' W 000°14'0 0.0
2017-Jan-13 21:33N 49°35' W 000°14'0 0.1
2017-Jan-13 20:33N 49°35' W 000°14'0 0.1
2017-Jan-13 19:33N 49°35' W 000°14'0 0.1
2017-Jan-13 18:33N 49°35' W 000°15'0 0.0
2017-Jan-13 17:33N 49°35' W 000°15'0 0.1
2017-Jan-13 16:33N 49°35' W 000°15'0 0.0
2017-Jan-13 15:33N 49°35' W 000°15'0 0.0
2017-Jan-13 14:33N 49°35' W 000°15'0 0.0
2017-Jan-13 13:33N 49°35' W 000°15'0 0.1
2017-Jan-13 12:33N 49°35' W 000°15'0 0.0
2017-Jan-13 11:33N 49°35' W 000°14'0 0.1
2017-Jan-13 10:33N 49°35' W 000°14'0 0.1
2017-Jan-13 09:33N 49°35' W 000°14'0 0.0
2017-Jan-13 08:33N 49°35' W 000°14'0 0.1
2017-Jan-13 07:33N 49°35' W 000°14'0 0.1
2017-Jan-13 06:33N 49°35' W 000°15'0 0.1
2017-Jan-13 05:33N 49°35' W 000°15'0 0.1
2017-Jan-13 04:33N 49°35' W 000°15'0 0.0
2017-Jan-13 03:33N 49°35' W 000°15'0 0.1
2017-Jan-13 02:33N 49°35' W 000°15'0 0.1
2017-Jan-13 01:33N 49°35' W 000°15'0 0.1
2017-Jan-13 00:33N 49°35' W 000°15'0 0.0
2017-Jan-12 23:33N 49°35' W 000°15'0 0.1
2017-Jan-12 22:33N 49°35' W 000°14'0 0.1
2017-Jan-12 21:33N 49°35' W 000°14'0 0.0
2017-Jan-12 20:33N 49°35' W 000°14'0 0.0
2017-Jan-12 19:33N 49°35' W 000°14'0 0.0
2017-Jan-12 18:33N 49°35' W 000°15'0 0.3
2017-Jan-12 17:33N 49°35' W 000°15'0 0.2
2017-Jan-12 16:33N 49°35' W 000°15'0 0.0
2017-Jan-12 15:33N 49°35' W 000°15'0 0.0
2017-Jan-12 14:30N 49°35' W 000°15'0 0.1
2017-Jan-12 13:33N 49°35' W 000°15'0 0.1
2017-Jan-12 12:33N 49°35' W 000°15'0 0.2
2017-Jan-12 11:33N 49°35' W 000°15'0 0.1
2017-Jan-12 10:33N 49°35' W 000°15'0 0.0
2017-Jan-12 09:33N 49°35' W 000°15'0 0.0
2017-Jan-12 08:33N 49°35' W 000°15'0 0.1
2017-Jan-12 07:33N 49°35' W 000°15'0 0.1
2017-Jan-12 06:33N 49°35' W 000°15'0 0.1
2017-Jan-12 05:33N 49°35' W 000°15'0 0.2
2017-Jan-12 04:33N 49°35' W 000°15'0 0.1
2017-Jan-12 03:33N 49°35' W 000°15'0 0.0
2017-Jan-12 02:33N 49°35' W 000°15'0 0.0
2017-Jan-12 01:33N 49°35' W 000°15'0 0.0
2017-Jan-12 00:33N 49°35' W 000°15'0 0.3
2017-Jan-11 23:33N 49°35' W 000°15'0 0.1
2017-Jan-11 22:33N 49°35' W 000°15'0 0.1
2017-Jan-11 21:33N 49°35' W 000°15'0 0.1
2017-Jan-11 20:30N 49°35' W 000°15'0 0.0
2017-Jan-11 19:33N 49°35' W 000°15'0 0.1
2017-Jan-11 18:33N 49°35' W 000°15'0 0.1
2017-Jan-11 17:33N 49°35' W 000°15'0 0.1
2017-Jan-11 16:33N 49°35' W 000°15'0 0.1
2017-Jan-11 15:33N 49°35' W 000°15'0 0.1
2017-Jan-11 14:33N 49°35' W 000°15'0 0.0
2017-Jan-11 13:33N 49°35' W 000°15'0 0.0
2017-Jan-11 12:33N 49°35' W 000°15'0 0.3
2017-Jan-11 11:33N 49°35' W 000°15'0 0.2
2017-Jan-11 10:33N 49°35' W 000°15'0 0.0
2017-Jan-11 09:30N 49°35' W 000°15'0 0.0
2017-Jan-11 08:33N 49°35' W 000°15'0 0.0
2017-Jan-11 07:33N 49°35' W 000°15'0 0.1
2017-Jan-11 06:33N 49°35' W 000°15'0 0.1
2017-Jan-11 05:33N 49°35' W 000°15'0 0.1
2017-Jan-11 04:33N 49°35' W 000°15'0 0.2
2017-Jan-11 03:33N 49°35' W 000°15'0 0.1
2017-Jan-11 02:33N 49°35' W 000°15'0 0.0
2017-Jan-11 01:33N 49°35' W 000°15'0 0.0
2017-Jan-11 00:33N 49°35' W 000°15'0 0.0
2017-Jan-10 23:33N 49°35' W 000°15'0 0.3
2017-Jan-10 22:33N 49°35' W 000°15'0 0.1
2017-Jan-10 21:33N 49°35' W 000°15'0 0.0
2017-Jan-10 20:33N 49°35' W 000°15'0 0.0
2017-Jan-10 19:33N 49°35' W 000°15'0 0.0
2017-Jan-10 18:33N 49°35' W 000°15'0 0.1
2017-Jan-10 17:33N 49°35' W 000°15'0 0.1
2017-Jan-10 16:33N 49°35' W 000°15'0 0.1
2017-Jan-10 15:33N 49°35' W 000°15'0 0.1
2017-Jan-10 14:33N 49°35' W 000°15'0 0.0
2017-Jan-10 13:33N 49°35' W 000°15'0 0.0
2017-Jan-10 12:33N 49°35' W 000°15'0 0.0
2017-Jan-10 11:33N 49°35' W 000°15'0 0.2
2017-Jan-10 10:33N 49°35' W 000°15'0 0.1
2017-Jan-10 09:33N 49°35' W 000°15'0 0.1
2017-Jan-10 08:33N 49°35' W 000°15'0 0.1
2017-Jan-10 07:33N 49°35' W 000°15'0 0.0
2017-Jan-10 06:33N 49°35' W 000°15'0 0.0
2017-Jan-10 05:33N 49°35' W 000°15'0 0.1
2017-Jan-10 04:33N 49°35' W 000°15'0 0.1
2017-Jan-10 03:33N 49°35' W 000°15'0 0.1
2017-Jan-10 02:33N 49°35' W 000°15'0 0.1
2017-Jan-10 01:33N 49°35' W 000°15'0 0.0
2017-Jan-10 00:33N 49°35' W 000°15'0 0.1
2017-Jan-09 23:33N 49°35' W 000°15'0 0.2
2017-Jan-09 22:33N 49°35' W 000°15'0 0.2
2017-Jan-09 21:33N 49°35' W 000°15'0 0.1
2017-Jan-09 20:33N 49°35' W 000°15'0 0.1
2017-Jan-09 19:33N 49°35' W 000°15'0 0.0
2017-Jan-09 18:33N 49°35' W 000°15'0 0.0
2017-Jan-09 17:33N 49°35' W 000°15'0 0.1
2017-Jan-09 16:33N 49°35' W 000°15'0 0.1
2017-Jan-09 15:30N 49°35' W 000°15'0 0.2
2017-Jan-09 14:32N 49°35' W 000°15'0 0.0
2017-Jan-09 13:32N 49°35' W 000°15'0 0.0
2017-Jan-09 12:30N 49°35' W 000°15'  

Dump ship's entire track history